Time;durP1;ratioP1;P1;durP2;ratioP2;P2;SDS_P1;SDS_P2;PMS_P1;PMS_P2;Temp;Humidity;BMP_temperature;BMP_pressure;BME280_temperature;BME280_humidity;BME280_pressure;Samples;Min_cycle;Max_cycle;Signal;HPM_P1;HPM_P2
2023/07/27 00:01:32;;;;;;;1.67;1.40;;;;;;;;;;5012747;28;20227;-96
2023/07/27 00:04:00;;;;;;;1.67;1.58;;;;;;;;;;5019873;28;20200;-95
2023/07/27 00:06:28;;;;;;;1.77;1.67;;;;;;;;;;5019969;28;20176;-94
2023/07/27 00:08:57;;;;;;;1.50;1.40;;;;;;;;;;5020027;28;20194;-95
2023/07/27 00:11:25;;;;;;;1.60;1.50;;;;;;;;;;5018874;28;20168;-94
2023/07/27 00:13:53;;;;;;;1.65;1.50;;;;;;;;;;5019819;28;20180;-94
2023/07/27 00:16:20;;;;;;;2.90;1.77;;;;;;;;;;5019756;28;20176;-95
2023/07/27 00:18:48;;;;;;;2.25;1.63;;;;;;;;;;5019875;28;20176;-94
2023/07/27 00:21:16;;;;;;;2.20;1.52;;;;;;;;;;5019390;28;20215;-95
2023/07/27 00:23:43;;;;;;;2.13;2.03;;;;;;;;;;5019780;28;20184;-94
2023/07/27 00:26:12;;;;;;;3.55;1.98;;;;;;;;;;5019225;28;20171;-94
2023/07/27 00:28:40;;;;;;;1.50;1.40;;;;;;;;;;5019488;28;20191;-94
2023/07/27 00:31:08;;;;;;;1.42;1.33;;;;;;;;;;5019206;28;20183;-93
2023/07/27 00:33:36;;;;;;;1.50;1.30;;;;;;;;;;5019657;28;20248;-94
2023/07/27 00:36:03;;;;;;;1.40;1.30;;;;;;;;;;5019553;28;20175;-94
2023/07/27 00:38:31;;;;;;;1.30;1.20;;;;;;;;;;5019559;28;20172;-94
2023/07/27 00:40:59;;;;;;;1.52;1.42;;;;;;;;;;5019066;28;20188;-95
2023/07/27 00:43:28;;;;;;;2.38;2.17;;;;;;;;;;5019432;28;20176;-95
2023/07/27 00:45:56;;;;;;;1.35;1.25;;;;;;;;;;5019463;28;20168;-94
2023/07/27 00:48:23;;;;;;;2.58;2.38;;;;;;;;;;5019371;28;20176;-94
2023/07/27 00:50:52;;;;;;;1.40;1.30;;;;;;;;;;5019201;28;20168;-96
2023/07/27 00:53:20;;;;;;;2.55;1.52;;;;;;;;;;5019290;28;20172;-94
2023/07/27 00:55:48;;;;;;;2.50;2.30;;;;;;;;;;5019297;28;20172;-94
2023/07/27 00:58:16;;;;;;;1.40;1.30;;;;;;;;;;5008723;28;20193;-94
2023/07/27 01:00:45;;;;;;;1.42;1.33;;;;;;;;;;4999314;28;20208;-94
2023/07/27 01:03:13;;;;;;;2.53;1.60;;;;;;;;;;4999564;28;20195;-95
2023/07/27 01:05:40;;;;;;;1.10;1.10;;;;;;;;;;4999778;28;20176;-94
2023/07/27 01:08:08;;;;;;;1.95;1.80;;;;;;;;;;4999594;28;20168;-93
2023/07/27 01:10:47;;;;;;;1.40;1.30;;;;;;;;;;4999419;28;20191;-95
2023/07/27 01:13:24;;;;;;;2.13;1.50;;;;;;;;;;4999670;28;20236;-95
2023/07/27 01:16:01;;;;;;;1.27;1.20;;;;;;;;;;4999684;28;20175;-94
2023/07/27 01:18:34;;;;;;;1.58;1.48;;;;;;;;;;4999802;28;20168;-93
2023/07/27 01:21:11;;;;;;;1.60;1.30;;;;;;;;;;4999260;28;20188;-94
2023/07/27 01:24:37;;;;;;;1.70;1.25;;;;;;;;;;5001756;28;20187;-94
2023/07/27 01:27:21;;;;;;;1.85;1.75;;;;;;;;;;5010899;28;20191;-94
2023/07/27 01:30:37;;;;;;;2.38;1.50;;;;;;;;;;5003240;28;20202;-94
2023/07/27 01:33:09;;;;;;;1.83;1.50;;;;;;;;;;5003250;28;20180;-95
2023/07/27 01:35:48;;;;;;;1.77;1.65;;;;;;;;;;5003296;28;20177;-95
2023/07/27 01:38:16;;;;;;;1.73;1.63;;;;;;;;;;5003256;28;20180;-93
2023/07/27 01:40:44;;;;;;;1.00;1.00;;;;;;;;;;5002916;28;20188;-94
2023/07/27 01:43:13;;;;;;;1.48;1.38;;;;;;;;;;5003166;28;20172;-95
2023/07/27 01:45:43;;;;;;;1.60;1.50;;;;;;;;;;5003064;28;20204;-94
2023/07/27 01:48:11;;;;;;;1.73;1.63;;;;;;;;;;5003060;28;20172;-94
2023/07/27 01:50:43;;;;;;;1.52;1.40;;;;;;;;;;5002842;28;20172;-94
2023/07/27 01:53:11;;;;;;;2.50;1.67;;;;;;;;;;5003251;28;20196;-96
2023/07/27 01:55:39;;;;;;;1.83;1.73;;;;;;;;;;5002908;28;20184;-95
2023/07/27 01:58:07;;;;;;;1.77;1.67;;;;;;;;;;5012089;28;20184;-94
2023/07/27 02:00:35;;;;;;;1.77;1.67;;;;;;;;;;5022162;28;20207;-94
2023/07/27 02:03:04;;;;;;;2.03;1.83;;;;;;;;;;5022348;28;20230;-96
2023/07/27 02:05:33;;;;;;;1.98;1.73;;;;;;;;;;5022588;28;20172;-95
2023/07/27 02:08:00;;;;;;;2.25;1.98;;;;;;;;;;5022458;28;20192;-94
2023/07/27 02:10:29;;;;;;;2.28;1.95;;;;;;;;;;5022601;28;20172;-94
2023/07/27 02:13:04;;;;;;;2.17;1.60;;;;;;;;;;5022662;28;20168;-96
2023/07/27 02:15:38;;;;;;;1.92;1.83;;;;;;;;;;5022538;28;20175;-96
2023/07/27 02:18:12;;;;;;;1.70;1.60;;;;;;;;;;5022380;28;20179;-94
2023/07/27 02:20:40;;;;;;;2.42;2.15;;;;;;;;;;5021992;28;20172;-95
2023/07/27 02:23:10;;;;;;;1.60;1.50;;;;;;;;;;5021801;28;20211;-94
2023/07/27 02:25:38;;;;;;;1.77;1.67;;;;;;;;;;5021940;28;20196;-94
2023/07/27 02:28:06;;;;;;;1.90;1.80;;;;;;;;;;5021927;28;20214;-94
2023/07/27 02:30:34;;;;;;;2.85;1.80;;;;;;;;;;5021766;28;20214;-95
2023/07/27 02:33:02;;;;;;;1.73;1.40;;;;;;;;;;5021689;28;20172;-94
2023/07/27 02:35:31;;;;;;;1.85;1.58;;;;;;;;;;5020864;28;20381;-95
2023/07/27 02:37:59;;;;;;;2.08;1.90;;;;;;;;;;5022004;28;20176;-94
2023/07/27 02:40:27;;;;;;;2.45;2.28;;;;;;;;;;5021700;28;20179;-93
2023/07/27 02:42:54;;;;;;;1.65;1.55;;;;;;;;;;5021503;28;20274;-95
2023/07/27 02:45:43;;;;;;;1.60;1.50;;;;;;;;;;5021644;28;20176;-95
2023/07/27 02:48:11;;;;;;;2.33;1.30;;;;;;;;;;5021666;28;20408;-94
2023/07/27 02:50:49;;;;;;;1.55;1.45;;;;;;;;;;5021329;28;20295;-95
2023/07/27 02:53:16;;;;;;;1.90;1.80;;;;;;;;;;5021448;28;20195;-94
2023/07/27 02:55:44;;;;;;;1.58;1.48;;;;;;;;;;5021436;28;20176;-94
2023/07/27 02:58:12;;;;;;;2.28;1.55;;;;;;;;;;5012567;28;20187;-94
2023/07/27 03:00:40;;;;;;;3.03;1.88;;;;;;;;;;5021085;28;20179;-95
2023/07/27 03:03:10;;;;;;;2.38;2.00;;;;;;;;;;5021104;28;20208;-94
2023/07/27 03:05:39;;;;;;;2.03;1.85;;;;;;;;;;5021289;28;20195;-94
2023/07/27 03:08:07;;;;;;;2.10;1.98;;;;;;;;;;5021185;28;20176;-95
2023/07/27 03:10:39;;;;;;;1.83;1.73;;;;;;;;;;5021117;28;20195;-94
2023/07/27 03:13:07;;;;;;;1.60;1.50;;;;;;;;;;5020920;28;20207;-94
2023/07/27 03:15:39;;;;;;;1.90;1.80;;;;;;;;;;5021074;28;20191;-94
2023/07/27 03:18:07;;;;;;;1.55;1.45;;;;;;;;;;5021020;28;20172;-94
2023/07/27 03:20:41;;;;;;;2.25;1.90;;;;;;;;;;5020771;28;20184;-94
2023/07/27 03:23:09;;;;;;;2.28;2.00;;;;;;;;;;5020756;28;20196;-95
2023/07/27 03:25:37;;;;;;;1.60;1.50;;;;;;;;;;5020859;28;20172;-94
2023/07/27 03:28:08;;;;;;;2.17;1.42;;;;;;;;;;5019896;28;20192;-95
2023/07/27 03:30:36;;;;;;;4.05;1.77;;;;;;;;;;5001027;28;20183;-95
2023/07/27 03:33:04;;;;;;;1.88;1.77;;;;;;;;;;5001186;28;20173;-95
2023/07/27 03:35:32;;;;;;;2.03;1.50;;;;;;;;;;5003954;28;20176;-94
2023/07/27 03:38:02;;;;;;;1.85;1.63;;;;;;;;;;5018541;28;20199;-95
2023/07/27 03:40:29;;;;;;;1.65;1.55;;;;;;;;;;5019132;28;20176;-94
2023/07/27 03:42:57;;;;;;;1.25;1.25;;;;;;;;;;5018845;28;20199;-94
2023/07/27 03:45:25;;;;;;;1.55;1.45;;;;;;;;;;5018100;28;20188;-95
2023/07/27 03:47:53;;;;;;;1.38;1.27;;;;;;;;;;5012185;28;20184;-95
2023/07/27 03:50:20;;;;;;;2.03;1.88;;;;;;;;;;5020019;28;20194;-94
2023/07/27 03:52:48;;;;;;;1.52;1.38;;;;;;;;;;5020231;28;20227;-94
2023/07/27 03:55:19;;;;;;;2.58;2.28;;;;;;;;;;5020430;28;20172;-94
2023/07/27 03:57:48;;;;;;;1.50;1.40;;;;;;;;;;5020360;28;20179;-95
2023/07/27 04:00:16;;;;;;;1.80;1.70;;;;;;;;;;5020083;28;20183;-95
2023/07/27 04:02:44;;;;;;;1.58;1.48;;;;;;;;;;5019875;28;20215;-95
2023/07/27 04:05:11;;;;;;;1.65;1.55;;;;;;;;;;5020059;28;20176;-95
2023/07/27 04:07:39;;;;;;;1.80;1.70;;;;;;;;;;5020156;28;20176;-95
2023/07/27 04:10:08;;;;;;;2.25;1.45;;;;;;;;;;5020009;28;20174;-95
2023/07/27 04:12:37;;;;;;;1.65;1.40;;;;;;;;;;5020308;28;20199;-95
2023/07/27 04:15:07;;;;;;;1.60;1.50;;;;;;;;;;5021013;28;20172;-95
2023/07/27 04:17:36;;;;;;;1.85;1.45;;;;;;;;;;5016460;28;20208;-95
2023/07/27 04:20:08;;;;;;;2.42;2.22;;;;;;;;;;5001428;28;20180;-95
2023/07/27 04:22:39;;;;;;;2.10;1.83;;;;;;;;;;5000875;28;20207;-96
2023/07/27 04:25:09;;;;;;;1.67;1.58;;;;;;;;;;5000695;28;20192;-94
2023/07/27 04:27:55;;;;;;;2.35;1.50;;;;;;;;;;5000599;28;20204;-95
2023/07/27 04:30:23;;;;;;;1.60;1.50;;;;;;;;;;5000294;28;20191;-95
2023/07/27 04:32:51;;;;;;;1.80;1.70;;;;;;;;;;5000263;28;20175;-94
2023/07/27 04:35:21;;;;;;;1.40;1.30;;;;;;;;;;5000094;28;20180;-94
2023/07/27 04:37:49;;;;;;;1.58;1.42;;;;;;;;;;5000260;28;20192;-95
2023/07/27 04:40:19;;;;;;;1.80;1.70;;;;;;;;;;5000444;28;20176;-93
2023/07/27 04:43:12;;;;;;;1.85;1.75;;;;;;;;;;5000368;28;20197;-94
2023/07/27 04:45:40;;;;;;;1.60;1.27;;;;;;;;;;5011239;28;20186;-94
2023/07/27 04:48:22;;;;;;;1.65;1.30;;;;;;;;;;5011006;28;20181;-94
2023/07/27 04:50:53;;;;;;;1.77;1.67;;;;;;;;;;5000559;28;20175;-94
2023/07/27 04:53:22;;;;;;;1.83;1.50;;;;;;;;;;5000604;28;20224;-95
2023/07/27 04:55:50;;;;;;;1.40;1.13;;;;;;;;;;5000320;28;20200;-95
2023/07/27 04:58:20;;;;;;;1.60;1.50;;;;;;;;;;4999423;28;20197;-94
2023/07/27 05:00:54;;;;;;;1.60;1.50;;;;;;;;;;4999801;28;20187;-94
2023/07/27 05:03:22;;;;;;;1.60;1.50;;;;;;;;;;4999657;28;20187;-94
2023/07/27 05:05:50;;;;;;;1.17;1.17;;;;;;;;;;4999905;28;20184;-94
2023/07/27 05:08:18;;;;;;;1.60;1.50;;;;;;;;;;4999603;28;20172;-94
2023/07/27 05:10:46;;;;;;;1.38;1.27;;;;;;;;;;4999429;28;20187;-94
2023/07/27 05:13:13;;;;;;;1.75;1.27;;;;;;;;;;4999636;28;20168;-94
2023/07/27 05:15:43;;;;;;;1.67;1.58;;;;;;;;;;5010877;28;20187;-94
2023/07/27 05:18:10;;;;;;;1.67;1.45;;;;;;;;;;5019114;28;20184;-94
2023/07/27 05:20:38;;;;;;;1.40;1.30;;;;;;;;;;5018913;28;20179;-94
2023/07/27 05:23:06;;;;;;;1.80;1.38;;;;;;;;;;5018970;28;20211;-95
2023/07/27 05:25:34;;;;;;;1.63;1.52;;;;;;;;;;5019146;28;20172;-94
2023/07/27 05:28:02;;;;;;;1.65;1.55;;;;;;;;;;5019130;28;20175;-94
2023/07/27 05:30:30;;;;;;;1.40;1.30;;;;;;;;;;5018887;28;20244;-94
2023/07/27 05:32:59;;;;;;;1.55;1.45;;;;;;;;;;5018996;28;20195;-95
2023/07/27 05:35:27;;;;;;;2.22;1.90;;;;;;;;;;5019141;28;20184;-93
2023/07/27 05:37:55;;;;;;;2.17;1.98;;;;;;;;;;5018873;28;20180;-94
2023/07/27 05:40:22;;;;;;;3.85;2.15;;;;;;;;;;5018893;28;20175;-95
2023/07/27 05:42:50;;;;;;;1.83;1.73;;;;;;;;;;5018720;28;20172;-93
2023/07/27 05:45:18;;;;;;;1.63;1.35;;;;;;;;;;5017833;28;20179;-94
2023/07/27 05:47:46;;;;;;;1.48;1.38;;;;;;;;;;5012941;28;20184;-95
2023/07/27 05:50:16;;;;;;;1.50;1.40;;;;;;;;;;5016543;28;20195;-93
2023/07/27 05:52:43;;;;;;;1.60;1.50;;;;;;;;;;5018648;28;20187;-93
2023/07/27 05:55:11;;;;;;;1.50;1.40;;;;;;;;;;5018795;28;20176;-94
2023/07/27 05:57:39;;;;;;;1.48;1.35;;;;;;;;;;5018770;28;20195;-94
2023/07/27 06:00:09;;;;;;;2.20;2.00;;;;;;;;;;5018759;28;20176;-94
2023/07/27 06:02:37;;;;;;;1.70;1.60;;;;;;;;;;5001949;28;20255;-92
2023/07/27 06:05:06;;;;;;;2.42;1.60;;;;;;;;;;5018599;28;20247;-93
2023/07/27 06:07:35;;;;;;;1.80;1.70;;;;;;;;;;5018723;28;20183;-94
2023/07/27 06:10:03;;;;;;;1.50;1.40;;;;;;;;;;5019734;28;20173;-94
2023/07/27 06:12:30;;;;;;;2.65;1.88;;;;;;;;;;5020306;28;20187;-94
2023/07/27 06:14:58;;;;;;;1.73;1.60;;;;;;;;;;5022121;28;20191;-94
2023/07/27 06:17:27;;;;;;;1.70;1.60;;;;;;;;;;5022097;28;20176;-95
2023/07/27 06:19:55;;;;;;;1.95;1.80;;;;;;;;;;5021786;28;20191;-94
2023/07/27 06:22:22;;;;;;;1.33;1.23;;;;;;;;;;5021749;28;20179;-92
2023/07/27 06:24:51;;;;;;;1.83;1.38;;;;;;;;;;5021776;28;20199;-94
2023/07/27 06:27:19;;;;;;;1.30;1.20;;;;;;;;;;5021918;28;20173;-94
2023/07/27 06:29:47;;;;;;;1.30;1.20;;;;;;;;;;5021851;28;20176;-95
2023/07/27 06:32:14;;;;;;;1.60;1.40;;;;;;;;;;5021628;28;20199;-94
2023/07/27 06:34:42;;;;;;;1.40;1.30;;;;;;;;;;5021773;28;20195;-94
2023/07/27 06:37:10;;;;;;;1.15;1.13;;;;;;;;;;5021716;28;20196;-94
2023/07/27 06:39:38;;;;;;;1.63;1.52;;;;;;;;;;5021673;28;20180;-94
2023/07/27 06:42:07;;;;;;;1.30;1.20;;;;;;;;;;5021378;28;20168;-95
2023/07/27 06:44:35;;;;;;;2.05;1.85;;;;;;;;;;5021549;28;20191;-93
2023/07/27 06:47:03;;;;;;;2.25;1.90;;;;;;;;;;5021527;28;20176;-95
2023/07/27 06:49:30;;;;;;;1.98;1.50;;;;;;;;;;5021513;28;20179;-93
2023/07/27 06:52:00;;;;;;;2.13;1.58;;;;;;;;;;5020683;28;20187;-93
2023/07/27 06:54:29;;;;;;;2.33;2.13;;;;;;;;;;5019568;28;20192;-91
2023/07/27 06:56:56;;;;;;;2.20;1.80;;;;;;;;;;5011836;28;20210;-93
2023/07/27 06:59:25;;;;;;;2.08;1.88;;;;;;;;;;5019817;28;20200;-92
2023/07/27 07:01:54;;;;;;;2.22;1.90;;;;;;;;;;5019695;28;20199;-93
2023/07/27 07:04:21;;;;;;;2.55;2.25;;;;;;;;;;5015063;28;20227;-93
2023/07/27 07:06:49;;;;;;;2.28;2.08;;;;;;;;;;5013159;28;20196;-92
2023/07/27 07:09:17;;;;;;;2.45;2.13;;;;;;;;;;5018588;28;20188;-91
2023/07/27 07:11:44;;;;;;;2.38;2.10;;;;;;;;;;5020295;28;20218;-89
2023/07/27 07:14:12;;;;;;;2.08;1.88;;;;;;;;;;5020758;28;20180;-90
2023/07/27 07:16:41;;;;;;;2.20;2.10;;;;;;;;;;5020909;28;20211;-91
2023/07/27 07:19:09;;;;;;;1.80;1.70;;;;;;;;;;5020854;28;20192;-92
2023/07/27 07:21:36;;;;;;;3.67;2.00;;;;;;;;;;5018915;28;20203;-91
2023/07/27 07:24:04;;;;;;;2.05;1.90;;;;;;;;;;5011041;28;20203;-92
2023/07/27 07:26:32;;;;;;;1.80;1.70;;;;;;;;;;5010953;28;20208;-91
2023/07/27 07:29:00;;;;;;;2.88;1.98;;;;;;;;;;5007893;28;20207;-92
2023/07/27 07:31:27;;;;;;;2.08;1.88;;;;;;;;;;5002695;28;20224;-91
2023/07/27 07:33:56;;;;;;;2.47;2.28;;;;;;;;;;5001758;28;20287;-91
2023/07/27 07:36:25;;;;;;;2.55;2.05;;;;;;;;;;5001280;28;20278;-92
2023/07/27 07:38:53;;;;;;;2.38;2.17;;;;;;;;;;4999517;28;20254;-93
2023/07/27 07:41:20;;;;;;;3.72;2.15;;;;;;;;;;4996503;28;20291;-94
2023/07/27 07:43:48;;;;;;;2.20;2.00;;;;;;;;;;4989452;28;20318;-94
2023/07/27 07:46:16;;;;;;;1.95;1.80;;;;;;;;;;4983292;28;20255;-92
2023/07/27 07:48:44;;;;;;;3.33;2.83;;;;;;;;;;4980348;28;20235;-93
2023/07/27 07:51:14;;;;;;;1.77;1.67;;;;;;;;;;5000195;28;20203;-94
2023/07/27 07:53:42;;;;;;;1.73;1.63;;;;;;;;;;5007184;28;20208;-93
2023/07/27 07:56:14;;;;;;;2.08;1.95;;;;;;;;;;5013338;28;20200;-94
2023/07/27 07:58:42;;;;;;;2.78;2.58;;;;;;;;;;5013504;28;20208;-94
2023/07/27 08:01:10;;;;;;;2.15;1.95;;;;;;;;;;5006200;28;20203;-93
2023/07/27 08:03:38;;;;;;;1.77;1.67;;;;;;;;;;5013548;28;20207;-93
2023/07/27 08:06:06;;;;;;;2.55;1.73;;;;;;;;;;5003021;28;20248;-93
2023/07/27 08:08:35;;;;;;;2.47;2.28;;;;;;;;;;4997976;28;20598;-93
2023/07/27 08:11:03;;;;;;;1.90;1.80;;;;;;;;;;4995707;28;20199;-92
2023/07/27 08:13:31;;;;;;;1.70;1.60;;;;;;;;;;4995148;28;20227;-93
2023/07/27 08:15:59;;;;;;;1.83;1.73;;;;;;;;;;4994846;28;20620;-93
2023/07/27 08:18:28;;;;;;;1.70;1.60;;;;;;;;;;5010216;28;20200;-95
2023/07/27 08:21:00;;;;;;;1.60;1.50;;;;;;;;;;5017609;28;20203;-96
2023/07/27 08:23:28;;;;;;;1.90;1.80;;;;;;;;;;5001969;28;20196;-95
2023/07/27 08:25:59;;;;;;;2.03;1.90;;;;;;;;;;5017982;28;20219;-96
2023/07/27 08:28:27;;;;;;;1.70;1.60;;;;;;;;;;5017912;28;20207;-96
2023/07/27 08:30:58;;;;;;;1.73;1.63;;;;;;;;;;5017869;28;20231;-96
2023/07/27 08:33:25;;;;;;;3.25;2.13;;;;;;;;;;5017647;28;20188;-95
2023/07/27 08:35:53;;;;;;;2.85;1.90;;;;;;;;;;5018201;28;20190;-95
2023/07/27 08:38:31;;;;;;;2.33;2.10;;;;;;;;;;5018101;28;20227;-96
2023/07/27 08:43:42;;;;;;;2.13;2.00;;;;;;;;;;4979838;29;20192;-96
2023/07/27 08:46:21;;;;;;;1.98;1.80;;;;;;;;;;4981128;29;20181;-96
2023/07/27 08:49:03;;;;;;;2.30;2.10;;;;;;;;;;4964976;29;20183;-96
2023/07/27 09:04:21;;;;;;;1.95;1.85;;;;;;;;;;5057781;22;20234;-96
2023/07/27 09:06:50;;;;;;;2.38;2.17;;;;;;;;;;5019548;28;20203;-96
2023/07/27 09:09:20;;;;;;;1.90;1.80;;;;;;;;;;5019544;28;20197;-96
2023/07/27 09:11:54;;;;;;;2.58;2.28;;;;;;;;;;5019648;28;20191;-95
2023/07/27 09:24:01;;;;;;;2.10;1.83;;;;;;;;;;5427913;22;20315;-94
2023/07/27 09:26:29;;;;;;;1.70;1.60;;;;;;;;;;5015586;28;20220;-93
2023/07/27 09:28:56;;;;;;;1.60;1.50;;;;;;;;;;5014521;28;20337;-93
2023/07/27 09:31:26;;;;;;;1.50;1.40;;;;;;;;;;5012521;28;20223;-93
2023/07/27 09:33:54;;;;;;;2.10;1.40;;;;;;;;;;5014734;28;20200;-94
2023/07/27 09:36:22;;;;;;;1.40;1.30;;;;;;;;;;5015165;28;20211;-92
2023/07/27 09:38:49;;;;;;;1.50;1.40;;;;;;;;;;5015417;28;20195;-92
2023/07/27 09:41:18;;;;;;;2.75;1.48;;;;;;;;;;5015891;28;20232;-93
2023/07/27 09:43:46;;;;;;;1.40;1.10;;;;;;;;;;5018494;28;20221;-93
2023/07/27 09:46:13;;;;;;;1.25;1.25;;;;;;;;;;5021926;28;20219;-94
2023/07/27 09:48:43;;;;;;;2.08;1.92;;;;;;;;;;5021474;28;20203;-93
2023/07/27 09:51:36;;;;;;;1.73;1.63;;;;;;;;;;5020895;28;20215;-92
2023/07/27 09:54:24;;;;;;;1.10;1.00;;;;;;;;;;5024809;28;20191;-94
2023/07/27 09:57:22;;;;;;;0.90;0.90;;;;;;;;;;5020531;28;20188;-96
2023/07/27 09:59:50;;;;;;;1.17;1.00;;;;;;;;;;5019866;28;20204;-93
2023/07/27 10:02:18;;;;;;;1.48;1.38;;;;;;;;;;5020797;28;20207;-95
2023/07/27 10:04:49;;;;;;;1.48;1.38;;;;;;;;;;5020926;28;20215;-94
2023/07/27 10:07:18;;;;;;;1.30;1.20;;;;;;;;;;5020386;28;20218;-95
2023/07/27 10:09:46;;;;;;;1.15;1.15;;;;;;;;;;5020921;28;20203;-92
2023/07/27 10:12:27;;;;;;;1.33;1.30;;;;;;;;;;5020518;28;20211;-94
2023/07/27 10:15:20;;;;;;;1.35;1.23;;;;;;;;;;5018234;28;20215;-94
2023/07/27 10:17:50;;;;;;;0.70;0.70;;;;;;;;;;5018051;28;20192;-93
2023/07/27 10:20:27;;;;;;;0.90;0.90;;;;;;;;;;5015596;28;20211;-93
2023/07/27 10:23:10;;;;;;;0.95;0.95;;;;;;;;;;5024075;28;20306;-96
2023/07/27 10:26:04;;;;;;;1.23;1.13;;;;;;;;;;5019951;28;20192;-93
2023/07/27 10:28:40;;;;;;;1.17;1.13;;;;;;;;;;5019566;28;20251;-94
2023/07/27 10:31:25;;;;;;;1.30;0.93;;;;;;;;;;5018322;28;20202;-95
2023/07/27 10:34:04;;;;;;;0.75;0.75;;;;;;;;;;5018242;28;20191;-94
2023/07/27 10:37:03;;;;;;;1.10;1.10;;;;;;;;;;5018949;28;20188;-93
2023/07/27 10:39:35;;;;;;;1.10;1.00;;;;;;;;;;5018658;28;20204;-93
2023/07/27 10:42:06;;;;;;;1.67;1.00;;;;;;;;;;5014967;28;20271;-94
2023/07/27 10:44:49;;;;;;;1.08;1.02;;;;;;;;;;5012047;28;20284;-94
2023/07/27 10:47:32;;;;;;;1.02;1.02;;;;;;;;;;5017675;28;20303;-93
2023/07/27 10:50:05;;;;;;;1.00;1.00;;;;;;;;;;5014737;28;20275;-93
2023/07/27 10:52:41;;;;;;;1.05;1.05;;;;;;;;;;5017703;28;20224;-94
2023/07/27 10:55:12;;;;;;;0.80;0.80;;;;;;;;;;5015082;28;20212;-93
2023/07/27 10:57:40;;;;;;;0.90;0.88;;;;;;;;;;5019485;28;20183;-93
2023/07/27 11:00:10;;;;;;;1.80;0.90;;;;;;;;;;5017539;28;20196;-94
2023/07/27 11:02:42;;;;;;;0.98;0.98;;;;;;;;;;5011468;28;20228;-94
2023/07/27 11:05:18;;;;;;;0.80;0.80;;;;;;;;;;5019479;28;20275;-94
2023/07/27 11:07:50;;;;;;;1.40;1.30;;;;;;;;;;5019569;28;20227;-95
2023/07/27 11:10:36;;;;;;;1.38;1.27;;;;;;;;;;5044171;22;20226;-94
2023/07/27 11:15:42;;;;;;;0.80;0.80;;;;;;;;;;5031146;23;20216;-94
2023/07/27 11:18:26;;;;;;;0.90;0.90;;;;;;;;;;5001630;28;20192;-94
2023/07/27 11:24:58;;;;;;;0.70;0.70;;;;;;;;;;4937617;29;20178;-95
2023/07/27 11:27:46;;;;;;;0.60;0.60;;;;;;;;;;4962705;29;20200;-95
2023/07/27 11:54:43;;;;;;;0.65;0.65;;;;;;;;;;4980002;28;20205;-93
2023/07/27 11:57:30;;;;;;;0.60;0.60;;;;;;;;;;4981690;29;20177;-94
2023/07/27 12:00:06;;;;;;;0.40;0.40;;;;;;;;;;4981387;29;20177;-95
2023/07/27 12:02:43;;;;;;;0.60;0.60;;;;;;;;;;4981170;28;20176;-94
2023/07/27 12:06:55;;;;;;;0.47;0.47;;;;;;;;;;4981269;29;20244;-95
2023/07/27 12:09:24;;;;;;;0.22;0.22;;;;;;;;;;4980441;29;20169;-94
2023/07/27 12:11:53;;;;;;;0.30;0.30;;;;;;;;;;4981276;29;20181;-94
2023/07/27 12:14:24;;;;;;;0.50;0.50;;;;;;;;;;4981205;29;20216;-94
2023/07/27 12:16:55;;;;;;;0.80;0.50;;;;;;;;;;4981397;29;20234;-94
2023/07/27 12:19:24;;;;;;;0.75;0.75;;;;;;;;;;4981102;29;20173;-95
2023/07/27 12:21:59;;;;;;;0.60;0.47;;;;;;;;;;5083584;23;20248;-94
2023/07/27 12:24:28;;;;;;;0.45;0.40;;;;;;;;;;5014573;23;20215;-94
2023/07/27 12:27:01;;;;;;;1.45;0.47;;;;;;;;;;4999275;28;20232;-94
2023/07/27 12:29:29;;;;;;;0.43;0.43;;;;;;;;;;4998928;28;20212;-95
2023/07/27 12:31:57;;;;;;;0.40;0.40;;;;;;;;;;4998845;28;20252;-95
2023/07/27 12:37:08;;;;;;;0.43;0.43;;;;;;;;;;4959488;29;20217;-93
2023/07/27 12:39:38;;;;;;;0.32;0.32;;;;;;;;;;4961599;29;20184;-94
2023/07/27 12:42:09;;;;;;;0.40;0.40;;;;;;;;;;4952221;29;20207;-94
2023/07/27 12:44:43;;;;;;;0.40;0.40;;;;;;;;;;4942533;29;20175;-94
2023/07/27 12:47:13;;;;;;;0.52;0.52;;;;;;;;;;4942424;29;20217;-93
2023/07/27 12:49:41;;;;;;;0.45;0.45;;;;;;;;;;4941906;29;20198;-94
2023/07/27 12:52:09;;;;;;;1.30;0.70;;;;;;;;;;4940104;29;20191;-96
2023/07/27 12:54:38;;;;;;;0.50;0.50;;;;;;;;;;4923272;29;20175;-94
2023/07/27 12:57:08;;;;;;;0.52;0.52;;;;;;;;;;4923256;29;20191;-94
2023/07/27 12:59:36;;;;;;;0.47;0.47;;;;;;;;;;4922005;29;20207;-93
2023/07/27 13:02:03;;;;;;;0.50;0.50;;;;;;;;;;4921483;29;20207;-94
2023/07/27 13:04:31;;;;;;;0.50;0.50;;;;;;;;;;4941425;23;20199;-86
2023/07/27 13:06:58;;;;;;;0.50;0.50;;;;;;;;;;4973474;28;20212;-83
2023/07/27 13:09:26;;;;;;;0.65;0.65;;;;;;;;;;4973930;28;20294;-83
2023/07/27 13:11:55;;;;;;;1.40;0.70;;;;;;;;;;4974903;28;20258;-83
2023/07/27 13:14:22;;;;;;;0.52;0.52;;;;;;;;;;4973740;28;20290;-84
2023/07/27 13:16:50;;;;;;;0.60;0.60;;;;;;;;;;4973765;28;20717;-84
2023/07/27 13:19:17;;;;;;;0.45;0.45;;;;;;;;;;4975385;28;20291;-83
2023/07/27 13:21:45;;;;;;;0.47;0.47;;;;;;;;;;4985172;28;20311;-83
2023/07/27 13:24:12;;;;;;;0.80;0.80;;;;;;;;;;4993529;28;20199;-84
2023/07/27 13:26:39;;;;;;;0.52;0.52;;;;;;;;;;4997052;28;20294;-84
2023/07/27 13:29:10;;;;;;;0.65;0.50;;;;;;;;;;4996821;28;20770;-84
2023/07/27 13:31:38;;;;;;;0.38;0.38;;;;;;;;;;4996999;28;20322;-84
2023/07/27 13:34:05;;;;;;;0.43;0.43;;;;;;;;;;4996687;28;20358;-82
2023/07/27 13:36:33;;;;;;;0.55;0.55;;;;;;;;;;4996301;28;20206;-82
2023/07/27 13:39:00;;;;;;;0.60;0.60;;;;;;;;;;4996381;28;20294;-83
2023/07/27 13:41:28;;;;;;;0.70;0.70;;;;;;;;;;4996455;28;20224;-83
2023/07/27 13:43:55;;;;;;;0.60;0.60;;;;;;;;;;4996455;28;20230;-83
2023/07/27 13:46:24;;;;;;;0.68;0.68;;;;;;;;;;4996233;28;20581;-84
2023/07/27 13:48:52;;;;;;;0.50;0.50;;;;;;;;;;4996653;28;20227;-84
2023/07/27 13:51:29;;;;;;;0.50;0.50;;;;;;;;;;5235317;23;20227;-93
2023/07/27 13:53:57;;;;;;;0.60;0.60;;;;;;;;;;5022250;28;20218;-94
2023/07/27 13:56:24;;;;;;;0.68;0.68;;;;;;;;;;5015153;28;20180;-91
2023/07/27 13:58:52;;;;;;;0.52;0.52;;;;;;;;;;5017371;28;20207;-94
2023/07/27 14:01:20;;;;;;;0.47;0.47;;;;;;;;;;5022117;28;20175;-94
2023/07/27 14:03:49;;;;;;;0.70;0.70;;;;;;;;;;5022456;28;20180;-93
2023/07/27 16:34:16;;;;;;;0.60;0.40;;;;;;;;;;4998830;28;20177;-94
2023/07/27 16:36:44;;;;;;;0.30;0.30;;;;;;;;;;5000148;28;20184;-94
2023/07/27 16:39:11;;;;;;;0.30;0.30;;;;;;;;;;5000084;28;20187;-93
2023/07/27 16:41:39;;;;;;;0.47;0.35;;;;;;;;;;4999665;28;20172;-94
2023/07/27 16:44:07;;;;;;;0.50;0.50;;;;;;;;;;5000103;28;20169;-94
2023/07/27 16:46:35;;;;;;;0.40;0.40;;;;;;;;;;4999890;28;20168;-93
2023/07/27 16:49:02;;;;;;;0.40;0.40;;;;;;;;;;4999857;28;20188;-96
2023/07/27 16:51:31;;;;;;;0.50;0.50;;;;;;;;;;4999696;28;20177;-95
2023/07/27 16:53:59;;;;;;;0.50;0.50;;;;;;;;;;4999360;28;20177;-94
2023/07/27 16:56:27;;;;;;;0.40;0.40;;;;;;;;;;5000208;28;20172;-95
2023/07/27 16:58:54;;;;;;;0.20;0.20;;;;;;;;;;5000155;28;20184;-94
2023/07/27 17:01:22;;;;;;;0.45;0.45;;;;;;;;;;5000620;28;20173;-94
2023/07/27 17:03:50;;;;;;;0.60;0.60;;;;;;;;;;5000919;28;20179;-94
2023/07/27 17:06:19;;;;;;;0.50;0.50;;;;;;;;;;5000494;28;20172;-94
2023/07/27 17:08:49;;;;;;;0.55;0.55;;;;;;;;;;5000154;28;20180;-95
2023/07/27 17:11:17;;;;;;;0.38;0.38;;;;;;;;;;4999850;28;20172;-93
2023/07/27 17:13:45;;;;;;;0.52;0.52;;;;;;;;;;4999815;28;20172;-95
2023/07/27 17:16:15;;;;;;;0.52;0.52;;;;;;;;;;4999633;28;20176;-93
2023/07/27 17:18:45;;;;;;;0.35;0.35;;;;;;;;;;4999712;28;20177;-95
2023/07/27 17:21:14;;;;;;;0.20;0.20;;;;;;;;;;4999406;28;20168;-95
2023/07/27 17:23:41;;;;;;;1.00;0.50;;;;;;;;;;4999591;28;20168;-94
2023/07/27 17:26:11;;;;;;;0.90;0.60;;;;;;;;;;4999644;28;20237;-94
2023/07/27 17:28:38;;;;;;;0.50;0.50;;;;;;;;;;4999114;28;20184;-93
2023/07/27 17:31:06;;;;;;;1.20;0.50;;;;;;;;;;4999133;28;20227;-94
2023/07/27 17:33:34;;;;;;;0.30;0.30;;;;;;;;;;4999428;28;20183;-94
2023/07/27 17:36:03;;;;;;;0.30;0.30;;;;;;;;;;4999536;28;20188;-95
2023/07/27 17:38:33;;;;;;;0.75;0.40;;;;;;;;;;4999455;28;20177;-94
2023/07/27 17:41:04;;;;;;;0.50;0.50;;;;;;;;;;4999199;28;20196;-94
2023/07/27 17:43:34;;;;;;;0.40;0.40;;;;;;;;;;4999573;28;20180;-95
2023/07/27 17:46:02;;;;;;;0.38;0.38;;;;;;;;;;4999518;28;20180;-94
2023/07/27 17:48:30;;;;;;;0.25;0.25;;;;;;;;;;4999446;28;20173;-95
2023/07/27 17:50:59;;;;;;;0.28;0.28;;;;;;;;;;4999043;28;20209;-95
2023/07/27 17:53:27;;;;;;;0.28;0.28;;;;;;;;;;4999362;28;20177;-95
2023/07/27 17:55:56;;;;;;;0.75;0.55;;;;;;;;;;4999328;28;20173;-93
2023/07/27 17:58:24;;;;;;;0.35;0.35;;;;;;;;;;4998981;28;20212;-95
2023/07/27 18:00:53;;;;;;;0.50;0.50;;;;;;;;;;4998878;28;20184;-93
2023/07/27 18:03:21;;;;;;;0.10;0.10;;;;;;;;;;4999338;28;20173;-94
2023/07/27 18:05:50;;;;;;;0.60;0.60;;;;;;;;;;5001482;28;20172;-95
2023/07/27 18:08:20;;;;;;;0.47;0.47;;;;;;;;;;5002786;28;20176;-95
2023/07/27 18:10:49;;;;;;;0.30;0.30;;;;;;;;;;5002418;28;20212;-94
2023/07/27 18:13:16;;;;;;;0.35;0.35;;;;;;;;;;5002758;28;20294;-95
2023/07/27 18:15:44;;;;;;;0.60;0.60;;;;;;;;;;5002663;28;20192;-94
2023/07/27 18:18:13;;;;;;;0.73;0.73;;;;;;;;;;5002739;28;20172;-95
2023/07/27 18:20:41;;;;;;;0.40;0.40;;;;;;;;;;5002346;28;20173;-93
2023/07/27 18:23:09;;;;;;;0.57;0.57;;;;;;;;;;5002534;28;20180;-95
2023/07/27 18:25:39;;;;;;;0.45;0.45;;;;;;;;;;5002495;28;20179;-94
2023/07/27 18:28:07;;;;;;;0.25;0.25;;;;;;;;;;5002204;28;20216;-95
2023/07/27 18:30:37;;;;;;;0.47;0.47;;;;;;;;;;5001947;28;20216;-94